sensor_id;sensor_type;location;lat;lon;timestamp;temperature;humidity
71088;SHT31;58747;50.674;4.616;2022-11-20T00:01:10;3.74;98.01
71088;SHT31;58747;50.674;4.616;2022-11-20T00:03:36;3.69;97.89
71088;SHT31;58747;50.674;4.616;2022-11-20T00:06:04;3.69;98.09
71088;SHT31;58747;50.674;4.616;2022-11-20T00:08:29;3.62;98.02
71088;SHT31;58747;50.674;4.616;2022-11-20T00:10:55;3.62;98.19
71088;SHT31;58747;50.674;4.616;2022-11-20T00:13:20;3.65;98.12
71088;SHT31;58747;50.674;4.616;2022-11-20T00:15:45;3.65;98.06
71088;SHT31;58747;50.674;4.616;2022-11-20T00:18:11;3.70;98.07
71088;SHT31;58747;50.674;4.616;2022-11-20T00:20:36;3.72;97.96
71088;SHT31;58747;50.674;4.616;2022-11-20T00:23:01;3.70;98.02
71088;SHT31;58747;50.674;4.616;2022-11-20T00:25:27;3.73;97.96
71088;SHT31;58747;50.674;4.616;2022-11-20T00:27:52;3.72;97.86
71088;SHT31;58747;50.674;4.616;2022-11-20T00:30:17;3.72;97.87
71088;SHT31;58747;50.674;4.616;2022-11-20T00:32:43;3.76;97.97
71088;SHT31;58747;50.674;4.616;2022-11-20T00:35:08;3.74;97.84
71088;SHT31;58747;50.674;4.616;2022-11-20T00:37:33;3.73;97.50
71088;SHT31;58747;50.674;4.616;2022-11-20T00:39:59;3.73;97.47
71088;SHT31;58747;50.674;4.616;2022-11-20T00:42:24;3.73;97.81
71088;SHT31;58747;50.674;4.616;2022-11-20T00:44:49;3.67;97.83
71088;SHT31;58747;50.674;4.616;2022-11-20T00:47:15;3.65;97.69
71088;SHT31;58747;50.674;4.616;2022-11-20T00:49:40;3.69;97.77
71088;SHT31;58747;50.674;4.616;2022-11-20T00:52:05;3.62;97.90
71088;SHT31;58747;50.674;4.616;2022-11-20T00:54:31;3.63;97.89
71088;SHT31;58747;50.674;4.616;2022-11-20T00:56:56;3.66;97.91
71088;SHT31;58747;50.674;4.616;2022-11-20T00:59:21;3.67;97.96
71088;SHT31;58747;50.674;4.616;2022-11-20T01:01:47;3.65;98.08
71088;SHT31;58747;50.674;4.616;2022-11-20T01:04:12;3.67;98.09
71088;SHT31;58747;50.674;4.616;2022-11-20T01:06:39;3.69;97.96
71088;SHT31;58747;50.674;4.616;2022-11-20T01:09:12;3.69;97.92
71088;SHT31;58747;50.674;4.616;2022-11-20T01:11:40;3.66;97.90
71088;SHT31;58747;50.674;4.616;2022-11-20T01:14:09;3.65;98.06
71088;SHT31;58747;50.674;4.616;2022-11-20T01:16:37;3.65;98.15
71088;SHT31;58747;50.674;4.616;2022-11-20T01:19:06;3.67;97.85
71088;SHT31;58747;50.674;4.616;2022-11-20T01:21:34;3.67;97.90
71088;SHT31;58747;50.674;4.616;2022-11-20T01:24:01;3.66;97.90
71088;SHT31;58747;50.674;4.616;2022-11-20T01:26:32;3.59;98.14
71088;SHT31;58747;50.674;4.616;2022-11-20T01:28:58;3.65;98.18
71088;SHT31;58747;50.674;4.616;2022-11-20T01:31:31;3.66;98.17
71088;SHT31;58747;50.674;4.616;2022-11-20T01:33:58;3.65;98.05
71088;SHT31;58747;50.674;4.616;2022-11-20T01:36:26;3.63;98.17
71088;SHT31;58747;50.674;4.616;2022-11-20T01:38:53;3.63;98.18
71088;SHT31;58747;50.674;4.616;2022-11-20T01:41:19;4.01;99.69
71088;SHT31;58747;50.674;4.616;2022-11-20T01:44:04;3.89;98.77
71088;SHT31;58747;50.674;4.616;2022-11-20T01:46:31;3.83;98.50
71088;SHT31;58747;50.674;4.616;2022-11-20T01:51:46;3.74;98.25
71088;SHT31;58747;50.674;4.616;2022-11-20T01:54:16;3.72;98.19
71088;SHT31;58747;50.674;4.616;2022-11-20T01:56:43;3.66;98.22
71088;SHT31;58747;50.674;4.616;2022-11-20T01:59:10;3.65;98.07
71088;SHT31;58747;50.674;4.616;2022-11-20T02:01:38;3.65;98.26
71088;SHT31;58747;50.674;4.616;2022-11-20T02:04:05;3.66;98.41
71088;SHT31;58747;50.674;4.616;2022-11-20T02:06:38;3.65;98.44
71088;SHT31;58747;50.674;4.616;2022-11-20T02:09:05;3.67;98.49
71088;SHT31;58747;50.674;4.616;2022-11-20T02:11:31;3.63;98.57
71088;SHT31;58747;50.674;4.616;2022-11-20T02:13:57;3.53;98.60
71088;SHT31;58747;50.674;4.616;2022-11-20T02:16:28;3.51;98.68
71088;SHT31;58747;50.674;4.616;2022-11-20T02:18:55;3.59;98.82
71088;SHT31;58747;50.674;4.616;2022-11-20T02:21:58;3.65;98.95
71088;SHT31;58747;50.674;4.616;2022-11-20T02:24:25;3.70;98.84
71088;SHT31;58747;50.674;4.616;2022-11-20T02:26:57;3.72;98.74
71088;SHT31;58747;50.674;4.616;2022-11-20T02:29:32;3.69;98.57
71088;SHT31;58747;50.674;4.616;2022-11-20T02:32:00;3.72;98.61
71088;SHT31;58747;50.674;4.616;2022-11-20T02:34:26;3.77;98.87
71088;SHT31;58747;50.674;4.616;2022-11-20T02:36:52;3.79;98.68
71088;SHT31;58747;50.674;4.616;2022-11-20T02:39:19;3.70;98.65
71088;SHT31;58747;50.674;4.616;2022-11-20T02:41:45;3.76;98.46
71088;SHT31;58747;50.674;4.616;2022-11-20T02:44:11;3.76;98.47
71088;SHT31;58747;50.674;4.616;2022-11-20T02:46:37;3.74;98.50
71088;SHT31;58747;50.674;4.616;2022-11-20T02:49:03;3.77;98.42
71088;SHT31;58747;50.674;4.616;2022-11-20T02:51:29;3.84;98.39
71088;SHT31;58747;50.674;4.616;2022-11-20T02:53:54;3.84;98.43
71088;SHT31;58747;50.674;4.616;2022-11-20T02:56:20;3.82;98.17
71088;SHT31;58747;50.674;4.616;2022-11-20T02:58:45;3.82;98.38
71088;SHT31;58747;50.674;4.616;2022-11-20T03:01:10;3.82;98.44
71088;SHT31;58747;50.674;4.616;2022-11-20T03:03:36;3.83;98.46
71088;SHT31;58747;50.674;4.616;2022-11-20T03:06:01;3.80;98.31
71088;SHT31;58747;50.674;4.616;2022-11-20T03:08:26;3.74;98.16
71088;SHT31;58747;50.674;4.616;2022-11-20T03:10:52;3.80;98.39
71088;SHT31;58747;50.674;4.616;2022-11-20T03:13:17;3.82;98.35
71088;SHT31;58747;50.674;4.616;2022-11-20T03:15:43;3.79;98.14
71088;SHT31;58747;50.674;4.616;2022-11-20T03:18:08;3.82;98.35
71088;SHT31;58747;50.674;4.616;2022-11-20T03:20:33;3.77;98.36
71088;SHT31;58747;50.674;4.616;2022-11-20T03:22:59;3.77;98.15
71088;SHT31;58747;50.674;4.616;2022-11-20T03:25:25;3.73;97.91
71088;SHT31;58747;50.674;4.616;2022-11-20T03:27:50;3.72;97.72
71088;SHT31;58747;50.674;4.616;2022-11-20T03:30:16;3.70;98.02
71088;SHT31;58747;50.674;4.616;2022-11-20T03:32:41;3.70;97.97
71088;SHT31;58747;50.674;4.616;2022-11-20T03:35:07;3.73;98.02
71088;SHT31;58747;50.674;4.616;2022-11-20T03:37:32;3.77;98.18
71088;SHT31;58747;50.674;4.616;2022-11-20T03:39:58;3.79;98.08
71088;SHT31;58747;50.674;4.616;2022-11-20T03:42:23;3.77;98.03
71088;SHT31;58747;50.674;4.616;2022-11-20T03:45:07;3.79;97.84
71088;SHT31;58747;50.674;4.616;2022-11-20T03:47:33;3.76;97.49
71088;SHT31;58747;50.674;4.616;2022-11-20T03:49:58;3.65;96.78
71088;SHT31;58747;50.674;4.616;2022-11-20T03:52:23;3.63;96.74
71088;SHT31;58747;50.674;4.616;2022-11-20T03:54:49;3.58;96.72
71088;SHT31;58747;50.674;4.616;2022-11-20T03:57:14;3.62;97.08
71088;SHT31;58747;50.674;4.616;2022-11-20T03:59:39;3.58;97.07
71088;SHT31;58747;50.674;4.616;2022-11-20T04:02:05;3.52;97.02
71088;SHT31;58747;50.674;4.616;2022-11-20T04:04:30;3.55;96.98
71088;SHT31;58747;50.674;4.616;2022-11-20T04:06:55;3.58;97.38
71088;SHT31;58747;50.674;4.616;2022-11-20T04:09:21;3.56;97.16
71088;SHT31;58747;50.674;4.616;2022-11-20T04:11:46;3.59;97.41
71088;SHT31;58747;50.674;4.616;2022-11-20T04:14:14;3.60;97.34
71088;SHT31;58747;50.674;4.616;2022-11-20T04:16:40;3.59;97.02
71088;SHT31;58747;50.674;4.616;2022-11-20T04:19:09;3.59;96.89
71088;SHT31;58747;50.674;4.616;2022-11-20T04:21:35;3.62;96.94
71088;SHT31;58747;50.674;4.616;2022-11-20T04:24:00;3.65;96.94
71088;SHT31;58747;50.674;4.616;2022-11-20T04:26:27;3.66;97.11
71088;SHT31;58747;50.674;4.616;2022-11-20T04:28:53;3.70;97.25
71088;SHT31;58747;50.674;4.616;2022-11-20T04:31:24;3.70;97.27
71088;SHT31;58747;50.674;4.616;2022-11-20T04:33:50;3.63;96.88
71088;SHT31;58747;50.674;4.616;2022-11-20T04:36:24;3.60;97.13
71088;SHT31;58747;50.674;4.616;2022-11-20T04:38:57;3.65;97.35
71088;SHT31;58747;50.674;4.616;2022-11-20T04:41:28;3.67;97.43
71088;SHT31;58747;50.674;4.616;2022-11-20T04:43:57;3.72;97.53
71088;SHT31;58747;50.674;4.616;2022-11-20T04:46:25;3.77;97.53
71088;SHT31;58747;50.674;4.616;2022-11-20T04:48:51;3.76;97.25
71088;SHT31;58747;50.674;4.616;2022-11-20T04:51:16;3.72;97.00
71088;SHT31;58747;50.674;4.616;2022-11-20T04:53:42;3.76;97.23
71088;SHT31;58747;50.674;4.616;2022-11-20T04:56:08;3.82;97.35
71088;SHT31;58747;50.674;4.616;2022-11-20T04:58:35;3.84;97.44
71088;SHT31;58747;50.674;4.616;2022-11-20T05:01:22;3.87;97.50
71088;SHT31;58747;50.674;4.616;2022-11-20T05:03:48;3.86;97.63
71088;SHT31;58747;50.674;4.616;2022-11-20T05:06:16;3.84;97.83
71088;SHT31;58747;50.674;4.616;2022-11-20T05:08:41;3.90;97.94
71088;SHT31;58747;50.674;4.616;2022-11-20T05:11:12;3.89;97.79
71088;SHT31;58747;50.674;4.616;2022-11-20T05:13:38;3.86;97.97
71088;SHT31;58747;50.674;4.616;2022-11-20T05:16:07;3.87;97.85
71088;SHT31;58747;50.674;4.616;2022-11-20T05:18:33;3.83;97.76
71088;SHT31;58747;50.674;4.616;2022-11-20T05:20:59;3.84;97.81
71088;SHT31;58747;50.674;4.616;2022-11-20T05:23:25;3.91;97.89
71088;SHT31;58747;50.674;4.616;2022-11-20T05:25:54;3.93;97.78
71088;SHT31;58747;50.674;4.616;2022-11-20T05:28:20;3.95;97.81
71088;SHT31;58747;50.674;4.616;2022-11-20T05:30:46;3.97;97.73
71088;SHT31;58747;50.674;4.616;2022-11-20T05:33:11;3.94;97.68
71088;SHT31;58747;50.674;4.616;2022-11-20T05:35:37;3.98;97.70
71088;SHT31;58747;50.674;4.616;2022-11-20T05:38:02;3.95;97.76
71088;SHT31;58747;50.674;4.616;2022-11-20T05:40:27;3.97;97.81
71088;SHT31;58747;50.674;4.616;2022-11-20T05:42:53;4.03;97.97
71088;SHT31;58747;50.674;4.616;2022-11-20T05:45:18;3.94;98.00
71088;SHT31;58747;50.674;4.616;2022-11-20T05:47:43;3.95;98.07
71088;SHT31;58747;50.674;4.616;2022-11-20T05:50:09;4.01;98.23
71088;SHT31;58747;50.674;4.616;2022-11-20T05:52:34;4.03;98.39
71088;SHT31;58747;50.674;4.616;2022-11-20T05:54:59;4.07;98.33
71088;SHT31;58747;50.674;4.616;2022-11-20T05:57:24;4.04;98.04
71088;SHT31;58747;50.674;4.616;2022-11-20T05:59:50;4.03;97.97
71088;SHT31;58747;50.674;4.616;2022-11-20T06:02:15;4.00;98.06
71088;SHT31;58747;50.674;4.616;2022-11-20T06:04:41;4.01;98.20
71088;SHT31;58747;50.674;4.616;2022-11-20T06:07:06;4.01;98.29
71088;SHT31;58747;50.674;4.616;2022-11-20T06:09:32;4.01;98.33
71088;SHT31;58747;50.674;4.616;2022-11-20T06:11:57;4.04;98.24
71088;SHT31;58747;50.674;4.616;2022-11-20T06:14:23;4.05;98.13
71088;SHT31;58747;50.674;4.616;2022-11-20T06:16:48;4.08;98.22
71088;SHT31;58747;50.674;4.616;2022-11-20T06:19:13;4.13;98.10
71088;SHT31;58747;50.674;4.616;2022-11-20T06:21:39;4.15;98.13
71088;SHT31;58747;50.674;4.616;2022-11-20T06:24:05;4.13;98.00
71088;SHT31;58747;50.674;4.616;2022-11-20T06:26:31;4.07;98.16
71088;SHT31;58747;50.674;4.616;2022-11-20T06:28:56;4.11;98.25
71088;SHT31;58747;50.674;4.616;2022-11-20T06:31:23;4.13;98.10
71088;SHT31;58747;50.674;4.616;2022-11-20T06:33:49;4.13;98.13
71088;SHT31;58747;50.674;4.616;2022-11-20T06:36:17;4.10;98.24
71088;SHT31;58747;50.674;4.616;2022-11-20T06:38:43;4.11;98.21
71088;SHT31;58747;50.674;4.616;2022-11-20T06:41:11;4.11;98.26
71088;SHT31;58747;50.674;4.616;2022-11-20T06:43:37;4.10;98.33
71088;SHT31;58747;50.674;4.616;2022-11-20T06:46:03;4.05;98.43
71088;SHT31;58747;50.674;4.616;2022-11-20T06:48:29;4.05;98.46
71088;SHT31;58747;50.674;4.616;2022-11-20T06:50:55;4.03;98.57
71088;SHT31;58747;50.674;4.616;2022-11-20T06:53:21;4.07;98.50
71088;SHT31;58747;50.674;4.616;2022-11-20T06:55:48;4.10;98.52
71088;SHT31;58747;50.674;4.616;2022-11-20T06:58:14;4.10;98.57
71088;SHT31;58747;50.674;4.616;2022-11-20T07:00:40;4.14;98.68
71088;SHT31;58747;50.674;4.616;2022-11-20T07:03:07;4.17;98.64
71088;SHT31;58747;50.674;4.616;2022-11-20T07:05:33;4.21;98.59
71088;SHT31;58747;50.674;4.616;2022-11-20T07:07:59;4.28;98.59
71088;SHT31;58747;50.674;4.616;2022-11-20T07:10:25;4.27;98.76
71088;SHT31;58747;50.674;4.616;2022-11-20T07:12:51;4.30;98.76
71088;SHT31;58747;50.674;4.616;2022-11-20T07:15:17;4.34;98.67
71088;SHT31;58747;50.674;4.616;2022-11-20T07:17:43;4.40;98.59
71088;SHT31;58747;50.674;4.616;2022-11-20T07:20:09;4.40;98.49
71088;SHT31;58747;50.674;4.616;2022-11-20T07:22:34;4.41;98.50
71088;SHT31;58747;50.674;4.616;2022-11-20T07:24:59;4.45;98.68
71088;SHT31;58747;50.674;4.616;2022-11-20T07:27:25;4.45;98.70
71088;SHT31;58747;50.674;4.616;2022-11-20T07:29:50;4.49;98.74
71088;SHT31;58747;50.674;4.616;2022-11-20T07:32:16;4.52;98.72
71088;SHT31;58747;50.674;4.616;2022-11-20T07:34:41;4.61;98.70
71088;SHT31;58747;50.674;4.616;2022-11-20T07:37:06;4.62;98.69
71088;SHT31;58747;50.674;4.616;2022-11-20T07:39:32;4.63;98.72
71088;SHT31;58747;50.674;4.616;2022-11-20T07:41:57;4.69;98.81
71088;SHT31;58747;50.674;4.616;2022-11-20T07:44:22;4.71;98.84
71088;SHT31;58747;50.674;4.616;2022-11-20T07:46:48;4.80;98.87
71088;SHT31;58747;50.674;4.616;2022-11-20T07:49:13;4.80;98.73
71088;SHT31;58747;50.674;4.616;2022-11-20T07:51:38;4.79;98.78
71088;SHT31;58747;50.674;4.616;2022-11-20T07:54:04;4.83;98.85
71088;SHT31;58747;50.674;4.616;2022-11-20T07:56:29;4.83;99.01
71088;SHT31;58747;50.674;4.616;2022-11-20T07:58:54;4.83;99.11
71088;SHT31;58747;50.674;4.616;2022-11-20T08:01:20;4.90;98.87
71088;SHT31;58747;50.674;4.616;2022-11-20T08:03:45;4.89;98.89
71088;SHT31;58747;50.674;4.616;2022-11-20T08:06:10;4.96;98.90
71088;SHT31;58747;50.674;4.616;2022-11-20T08:08:36;5.03;98.77
71088;SHT31;58747;50.674;4.616;2022-11-20T08:11:01;5.03;98.68
71088;SHT31;58747;50.674;4.616;2022-11-20T08:13:45;5.03;98.90
71088;SHT31;58747;50.674;4.616;2022-11-20T08:16:29;5.06;99.05
71088;SHT31;58747;50.674;4.616;2022-11-20T08:18:54;5.09;98.93
71088;SHT31;58747;50.674;4.616;2022-11-20T08:21:20;5.14;99.00
71088;SHT31;58747;50.674;4.616;2022-11-20T08:23:45;5.20;99.05
71088;SHT31;58747;50.674;4.616;2022-11-20T08:26:10;5.23;98.97
71088;SHT31;58747;50.674;4.616;2022-11-20T08:28:36;5.28;98.87
71088;SHT31;58747;50.674;4.616;2022-11-20T08:31:03;5.34;98.97
71088;SHT31;58747;50.674;4.616;2022-11-20T08:33:29;5.32;99.01
71088;SHT31;58747;50.674;4.616;2022-11-20T08:35:59;5.37;98.97
71088;SHT31;58747;50.674;4.616;2022-11-20T08:38:24;5.44;98.91
71088;SHT31;58747;50.674;4.616;2022-11-20T08:40:50;5.51;98.75
71088;SHT31;58747;50.674;4.616;2022-11-20T08:43:34;5.59;98.71
71088;SHT31;58747;50.674;4.616;2022-11-20T08:45:59;5.68;98.53
71088;SHT31;58747;50.674;4.616;2022-11-20T08:48:24;5.71;98.60
71088;SHT31;58747;50.674;4.616;2022-11-20T08:50:50;5.75;98.64
71088;SHT31;58747;50.674;4.616;2022-11-20T08:53:15;5.79;98.76
71088;SHT31;58747;50.674;4.616;2022-11-20T08:55:40;5.92;98.56
71088;SHT31;58747;50.674;4.616;2022-11-20T08:58:06;5.98;98.31
71088;SHT31;58747;50.674;4.616;2022-11-20T09:00:32;6.00;98.20
71088;SHT31;58747;50.674;4.616;2022-11-20T09:02:58;6.05;98.11
71088;SHT31;58747;50.674;4.616;2022-11-20T09:05:26;6.10;97.95
71088;SHT31;58747;50.674;4.616;2022-11-20T09:07:55;6.10;98.09
71088;SHT31;58747;50.674;4.616;2022-11-20T09:10:20;6.11;98.21
71088;SHT31;58747;50.674;4.616;2022-11-20T09:12:48;6.24;98.17
71088;SHT31;58747;50.674;4.616;2022-11-20T09:15:13;6.27;97.84
71088;SHT31;58747;50.674;4.616;2022-11-20T09:17:39;6.34;97.78
71088;SHT31;58747;50.674;4.616;2022-11-20T09:20:04;6.34;97.71
71088;SHT31;58747;50.674;4.616;2022-11-20T09:22:30;6.37;97.66
71088;SHT31;58747;50.674;4.616;2022-11-20T09:24:55;6.42;97.70
71088;SHT31;58747;50.674;4.616;2022-11-20T09:27:20;6.48;97.52
71088;SHT31;58747;50.674;4.616;2022-11-20T09:29:46;6.58;97.52
71088;SHT31;58747;50.674;4.616;2022-11-20T09:32:12;6.61;97.34
71088;SHT31;58747;50.674;4.616;2022-11-20T09:34:37;6.65;97.10
71088;SHT31;58747;50.674;4.616;2022-11-20T09:37:02;6.69;97.07
71088;SHT31;58747;50.674;4.616;2022-11-20T09:39:28;6.78;97.21
71088;SHT31;58747;50.674;4.616;2022-11-20T09:47:20;6.95;96.40
71088;SHT31;58747;50.674;4.616;2022-11-20T09:52:43;6.96;95.86
71088;SHT31;58747;50.674;4.616;2022-11-20T09:55:12;6.95;95.48
71088;SHT31;58747;50.674;4.616;2022-11-20T09:57:44;7.03;95.42
71088;SHT31;58747;50.674;4.616;2022-11-20T10:00:13;7.09;95.00
71088;SHT31;58747;50.674;4.616;2022-11-20T10:08:24;7.06;95.51
71088;SHT31;58747;50.674;4.616;2022-11-20T10:29:32;7.29;94.44
71088;SHT31;58747;50.674;4.616;2022-11-20T10:32:04;7.33;94.02
71088;SHT31;58747;50.674;4.616;2022-11-20T10:37:10;7.36;94.41
71088;SHT31;58747;50.674;4.616;2022-11-20T10:42:36;7.42;93.49
71088;SHT31;58747;50.674;4.616;2022-11-20T10:45:15;7.50;93.69
71088;SHT31;58747;50.674;4.616;2022-11-20T10:47:42;7.56;93.77
71088;SHT31;58747;50.674;4.616;2022-11-20T10:50:14;7.64;92.93
71088;SHT31;58747;50.674;4.616;2022-11-20T10:55:30;7.71;92.25
71088;SHT31;58747;50.674;4.616;2022-11-20T10:58:04;7.71;91.61
71088;SHT31;58747;50.674;4.616;2022-11-20T11:00:33;7.74;91.82
71088;SHT31;58747;50.674;4.616;2022-11-20T11:02:58;7.84;90.98
71088;SHT31;58747;50.674;4.616;2022-11-20T11:05:54;7.77;91.80
71088;SHT31;58747;50.674;4.616;2022-11-20T11:08:22;7.73;90.85
71088;SHT31;58747;50.674;4.616;2022-11-20T11:10:59;7.68;91.67
71088;SHT31;58747;50.674;4.616;2022-11-20T11:13:30;7.71;91.70
71088;SHT31;58747;50.674;4.616;2022-11-20T11:15:56;7.81;92.13
71088;SHT31;58747;50.674;4.616;2022-11-20T11:18:32;7.79;91.87
71088;SHT31;58747;50.674;4.616;2022-11-20T11:21:01;7.78;91.83
71088;SHT31;58747;50.674;4.616;2022-11-20T11:26:01;7.74;90.46
71088;SHT31;58747;50.674;4.616;2022-11-20T11:28:28;7.68;91.23
71088;SHT31;58747;50.674;4.616;2022-11-20T11:30:54;7.63;90.93
71088;SHT31;58747;50.674;4.616;2022-11-20T11:33:28;7.67;90.49
71088;SHT31;58747;50.674;4.616;2022-11-20T11:36:00;7.64;90.42
71088;SHT31;58747;50.674;4.616;2022-11-20T11:38:38;7.64;90.95
71088;SHT31;58747;50.674;4.616;2022-11-20T11:41:05;7.60;91.21
71088;SHT31;58747;50.674;4.616;2022-11-20T11:43:34;7.58;91.25
71088;SHT31;58747;50.674;4.616;2022-11-20T11:57:23;7.23;93.60
71088;SHT31;58747;50.674;4.616;2022-11-20T11:59:59;7.20;94.38
71088;SHT31;58747;50.674;4.616;2022-11-20T12:05:18;7.22;94.81
71088;SHT31;58747;50.674;4.616;2022-11-20T12:10:41;7.15;93.77
71088;SHT31;58747;50.674;4.616;2022-11-20T12:15:44;7.12;94.00
71088;SHT31;58747;50.674;4.616;2022-11-20T12:18:15;7.08;94.42
71088;SHT31;58747;50.674;4.616;2022-11-20T12:21:30;7.06;94.45
71088;SHT31;58747;50.674;4.616;2022-11-20T12:31:51;7.09;94.53
71088;SHT31;58747;50.674;4.616;2022-11-20T12:34:37;7.13;94.76
71088;SHT31;58747;50.674;4.616;2022-11-20T12:37:12;7.09;94.39
71088;SHT31;58747;50.674;4.616;2022-11-20T12:39:42;7.06;94.88
71088;SHT31;58747;50.674;4.616;2022-11-20T12:48:28;7.08;94.68
71088;SHT31;58747;50.674;4.616;2022-11-20T12:59:39;7.00;95.42
71088;SHT31;58747;50.674;4.616;2022-11-20T13:04:53;6.99;96.32
71088;SHT31;58747;50.674;4.616;2022-11-20T13:07:22;7.03;96.23
71088;SHT31;58747;50.674;4.616;2022-11-20T13:09:50;7.08;95.53
71088;SHT31;58747;50.674;4.616;2022-11-20T13:12:24;7.06;95.88
71088;SHT31;58747;50.674;4.616;2022-11-20T13:15:24;7.15;96.11
71088;SHT31;58747;50.674;4.616;2022-11-20T13:17:54;7.10;96.30
71088;SHT31;58747;50.674;4.616;2022-11-20T13:20:21;7.08;96.77
71088;SHT31;58747;50.674;4.616;2022-11-20T13:22:48;7.08;97.08
71088;SHT31;58747;50.674;4.616;2022-11-20T13:25:35;7.08;97.46
71088;SHT31;58747;50.674;4.616;2022-11-20T13:30:35;7.09;97.44
71088;SHT31;58747;50.674;4.616;2022-11-20T13:33:08;7.09;97.53
71088;SHT31;58747;50.674;4.616;2022-11-20T13:35:40;7.00;97.92
71088;SHT31;58747;50.674;4.616;2022-11-20T13:38:07;7.08;98.09
71088;SHT31;58747;50.674;4.616;2022-11-20T13:40:35;7.08;97.87
71088;SHT31;58747;50.674;4.616;2022-11-20T13:43:08;7.03;98.11
71088;SHT31;58747;50.674;4.616;2022-11-20T13:45:35;6.99;98.16
71088;SHT31;58747;50.674;4.616;2022-11-20T13:48:20;6.98;98.22
71088;SHT31;58747;50.674;4.616;2022-11-20T13:56:20;7.06;97.86
71088;SHT31;58747;50.674;4.616;2022-11-20T13:59:05;7.02;98.12
71088;SHT31;58747;50.674;4.616;2022-11-20T14:01:37;7.03;98.31
71088;SHT31;58747;50.674;4.616;2022-11-20T14:04:09;7.06;98.12
71088;SHT31;58747;50.674;4.616;2022-11-20T14:06:42;7.13;97.82
71088;SHT31;58747;50.674;4.616;2022-11-20T14:09:28;7.09;98.04
71088;SHT31;58747;50.674;4.616;2022-11-20T14:11:53;7.06;98.34
71088;SHT31;58747;50.674;4.616;2022-11-20T14:14:21;7.09;98.48
71088;SHT31;58747;50.674;4.616;2022-11-20T14:16:47;7.05;98.40
71088;SHT31;58747;50.674;4.616;2022-11-20T14:21:47;7.09;98.62
71088;SHT31;58747;50.674;4.616;2022-11-20T14:24:18;7.15;98.51
71088;SHT31;58747;50.674;4.616;2022-11-20T14:26:44;7.12;98.08
71088;SHT31;58747;50.674;4.616;2022-11-20T14:29:17;7.10;98.22
71088;SHT31;58747;50.674;4.616;2022-11-20T14:31:47;7.12;98.28
71088;SHT31;58747;50.674;4.616;2022-11-20T14:34:21;7.12;98.11
71088;SHT31;58747;50.674;4.616;2022-11-20T14:36:47;7.09;98.22
71088;SHT31;58747;50.674;4.616;2022-11-20T14:39:20;7.12;97.99
71088;SHT31;58747;50.674;4.616;2022-11-20T14:41:53;7.13;97.78
71088;SHT31;58747;50.674;4.616;2022-11-20T14:44:26;7.15;98.08
71088;SHT31;58747;50.674;4.616;2022-11-20T14:46:52;7.17;97.63
71088;SHT31;58747;50.674;4.616;2022-11-20T14:49:18;7.16;97.55
71088;SHT31;58747;50.674;4.616;2022-11-20T14:51:44;7.15;97.81
71088;SHT31;58747;50.674;4.616;2022-11-20T14:54:15;7.15;97.82
71088;SHT31;58747;50.674;4.616;2022-11-20T14:56:41;7.19;98.07
71088;SHT31;58747;50.674;4.616;2022-11-20T14:59:08;7.16;98.15
71088;SHT31;58747;50.674;4.616;2022-11-20T15:01:34;7.15;98.18
71088;SHT31;58747;50.674;4.616;2022-11-20T15:04:09;7.16;98.40
71088;SHT31;58747;50.674;4.616;2022-11-20T15:06:36;7.15;98.37
71088;SHT31;58747;50.674;4.616;2022-11-20T15:09:03;7.12;98.44
71088;SHT31;58747;50.674;4.616;2022-11-20T15:11:31;7.15;98.62
71088;SHT31;58747;50.674;4.616;2022-11-20T15:13:58;7.16;98.49
71088;SHT31;58747;50.674;4.616;2022-11-20T15:16:26;7.20;98.25
71088;SHT31;58747;50.674;4.616;2022-11-20T15:18:53;7.23;98.03
71088;SHT31;58747;50.674;4.616;2022-11-20T15:21:19;7.23;98.20
71088;SHT31;58747;50.674;4.616;2022-11-20T15:23:48;7.23;98.13
71088;SHT31;58747;50.674;4.616;2022-11-20T15:26:18;7.23;98.16
71088;SHT31;58747;50.674;4.616;2022-11-20T15:28:46;7.27;98.28
71088;SHT31;58747;50.674;4.616;2022-11-20T15:31:14;7.26;98.09
71088;SHT31;58747;50.674;4.616;2022-11-20T15:33:40;7.29;97.90
71088;SHT31;58747;50.674;4.616;2022-11-20T15:36:09;7.33;97.78
71088;SHT31;58747;50.674;4.616;2022-11-20T15:38:34;7.34;97.90
71088;SHT31;58747;50.674;4.616;2022-11-20T15:41:00;7.38;97.72
71088;SHT31;58747;50.674;4.616;2022-11-20T15:43:28;7.43;97.41
71088;SHT31;58747;50.674;4.616;2022-11-20T15:45:56;7.44;97.22
71088;SHT31;58747;50.674;4.616;2022-11-20T15:48:39;7.48;97.36
71088;SHT31;58747;50.674;4.616;2022-11-20T15:51:41;7.48;97.31
71088;SHT31;58747;50.674;4.616;2022-11-20T15:54:41;7.51;97.24
71088;SHT31;58747;50.674;4.616;2022-11-20T15:57:11;7.48;97.57
71088;SHT31;58747;50.674;4.616;2022-11-20T15:59:38;7.54;97.44
71088;SHT31;58747;50.674;4.616;2022-11-20T16:02:14;7.58;97.13
71088;SHT31;58747;50.674;4.616;2022-11-20T16:04:40;7.60;97.10
71088;SHT31;58747;50.674;4.616;2022-11-20T16:07:08;7.61;96.64
71088;SHT31;58747;50.674;4.616;2022-11-20T16:09:36;7.60;96.58
71088;SHT31;58747;50.674;4.616;2022-11-20T16:12:05;7.60;96.14
71088;SHT31;58747;50.674;4.616;2022-11-20T16:15:02;7.60;96.19
71088;SHT31;58747;50.674;4.616;2022-11-20T16:17:46;7.54;96.60
71088;SHT31;58747;50.674;4.616;2022-11-20T16:20:15;7.60;96.71
71088;SHT31;58747;50.674;4.616;2022-11-20T16:22:40;7.56;97.13
71088;SHT31;58747;50.674;4.616;2022-11-20T16:25:09;7.56;97.17
71088;SHT31;58747;50.674;4.616;2022-11-20T16:27:34;7.57;97.00
71088;SHT31;58747;50.674;4.616;2022-11-20T16:30:10;7.58;97.02
71088;SHT31;58747;50.674;4.616;2022-11-20T16:32:38;7.54;96.88
71088;SHT31;58747;50.674;4.616;2022-11-20T16:35:04;7.54;96.94
71088;SHT31;58747;50.674;4.616;2022-11-20T16:37:35;7.53;96.99
71088;SHT31;58747;50.674;4.616;2022-11-20T16:40:05;7.57;96.73
71088;SHT31;58747;50.674;4.616;2022-11-20T16:42:39;7.56;96.79
71088;SHT31;58747;50.674;4.616;2022-11-20T16:45:25;7.61;96.69
71088;SHT31;58747;50.674;4.616;2022-11-20T16:48:03;7.63;96.48
71088;SHT31;58747;50.674;4.616;2022-11-20T16:50:29;7.64;96.21
71088;SHT31;58747;50.674;4.616;2022-11-20T16:53:03;7.61;96.31
71088;SHT31;58747;50.674;4.616;2022-11-20T16:58:56;7.53;95.99
71088;SHT31;58747;50.674;4.616;2022-11-20T17:01:30;7.43;96.52
71088;SHT31;58747;50.674;4.616;2022-11-20T17:04:01;7.33;97.03
71088;SHT31;58747;50.674;4.616;2022-11-20T17:06:29;7.50;96.17
71088;SHT31;58747;50.674;4.616;2022-11-20T17:08:55;7.42;96.09
71088;SHT31;58747;50.674;4.616;2022-11-20T17:11:21;7.34;96.38
71088;SHT31;58747;50.674;4.616;2022-11-20T17:13:47;7.34;95.83
71088;SHT31;58747;50.674;4.616;2022-11-20T17:16:18;7.31;96.32
71088;SHT31;58747;50.674;4.616;2022-11-20T17:18:44;7.29;96.68
71088;SHT31;58747;50.674;4.616;2022-11-20T17:21:10;7.27;96.71
71088;SHT31;58747;50.674;4.616;2022-11-20T17:23:38;7.29;96.73
71088;SHT31;58747;50.674;4.616;2022-11-20T17:28:30;7.24;96.82
71088;SHT31;58747;50.674;4.616;2022-11-20T17:31:00;7.23;97.19
71088;SHT31;58747;50.674;4.616;2022-11-20T17:33:27;7.13;97.29
71088;SHT31;58747;50.674;4.616;2022-11-20T17:35:55;7.13;97.23
71088;SHT31;58747;50.674;4.616;2022-11-20T17:38:21;7.05;97.45
71088;SHT31;58747;50.674;4.616;2022-11-20T17:40:47;7.10;97.25